Time;durP1;ratioP1;P1;durP2;ratioP2;P2;SDS_P1;SDS_P2;PMS_P1;PMS_P2;Temp;Humidity;BMP_temperature;BMP_pressure;BME280_temperature;BME280_humidity;BME280_pressure;Samples;Min_cycle;Max_cycle;Signal;HPM_P1;HPM_P2
2023/03/17 00:01:41;;;;;;;4.22;3.40;;;6.40;99.90;;;;;;5128210;27;20122;-79
2023/03/17 00:04:10;;;;;;;3.95;3.25;;;6.40;99.90;;;;;;5128415;27;20087;-79
2023/03/17 00:06:36;;;;;;;5.30;3.70;;;6.40;99.90;;;;;;5109684;27;21080;-79
2023/03/17 00:09:02;;;;;;;3.97;3.25;;;6.40;99.90;;;;;;5109726;28;20039;-79
2023/03/17 00:11:28;;;;;;;4.20;3.45;;;6.50;99.90;;;;;;5127556;28;20111;-79
2023/03/17 00:13:53;;;;;;;3.83;3.33;;;6.50;99.90;;;;;;5108758;28;20051;-79
2023/03/17 00:16:23;;;;;;;6.03;3.25;;;6.60;99.90;;;;;;5109088;28;20382;-79
2023/03/17 00:18:50;;;;;;;6.22;3.47;;;6.60;99.90;;;;;;5113992;27;20221;-79
2023/03/17 00:21:24;;;;;;;4.20;3.60;;;6.60;99.90;;;;;;5132928;27;20405;-79
2023/03/17 00:23:50;;;;;;;4.13;3.70;;;6.60;99.90;;;;;;5112666;27;20059;-78
2023/03/17 00:26:17;;;;;;;3.90;3.30;;;6.60;99.90;;;;;;5112474;27;20047;-79
2023/03/17 00:28:43;;;;;;;4.57;3.30;;;6.60;99.90;;;;;;5113968;27;20047;-78
2023/03/17 00:31:15;;;;;;;4.88;3.53;;;6.60;99.90;;;;;;5095914;27;20509;-78
2023/03/17 00:33:44;;;;;;;4.38;3.40;;;6.60;99.90;;;;;;5111352;27;20051;-78
2023/03/17 00:36:15;;;;;;;3.97;3.50;;;6.70;99.90;;;;;;5108228;28;20077;-79
2023/03/17 00:38:41;;;;;;;3.85;3.50;;;6.70;99.90;;;;;;5090127;28;20056;-78
2023/03/17 00:41:08;;;;;;;4.53;3.53;;;6.70;99.90;;;;;;5103574;28;20050;-78
2023/03/17 00:43:34;;;;;;;4.70;3.30;;;6.60;99.90;;;;;;5108970;28;20126;-78
2023/03/17 00:46:00;;;;;;;5.07;3.45;;;6.60;99.90;;;;;;5109491;28;20589;-78
2023/03/17 00:48:28;;;;;;;3.97;3.42;;;6.60;99.90;;;;;;5109003;28;20044;-78
2023/03/17 00:50:54;;;;;;;4.70;3.55;;;6.60;99.90;;;;;;5108331;28;20055;-78
2023/03/17 00:53:20;;;;;;;4.32;3.30;;;6.60;99.90;;;;;;5107509;28;20039;-78
2023/03/17 00:55:47;;;;;;;3.65;3.35;;;6.60;99.90;;;;;;5108255;28;20043;-78
2023/03/17 00:58:22;;;;;;;3.80;3.25;;;6.60;99.90;;;;;;5111267;28;20079;-78
2023/03/17 01:00:48;;;;;;;3.83;3.22;;;6.60;99.90;;;;;;5109407;28;20040;-78
2023/03/17 01:03:14;;;;;;;4.47;3.40;;;6.60;99.90;;;;;;5107775;28;20047;-78
2023/03/17 01:05:40;;;;;;;3.83;3.30;;;6.50;99.90;;;;;;5108785;28;20040;-78
2023/03/17 01:08:06;;;;;;;4.40;3.72;;;6.50;99.90;;;;;;5107362;28;20139;-78
2023/03/17 01:10:32;;;;;;;3.63;3.10;;;6.50;99.90;;;;;;5110106;28;20035;-78
2023/03/17 01:12:58;;;;;;;4.85;3.45;;;6.50;99.90;;;;;;5106532;28;20051;-78
2023/03/17 01:15:28;;;;;;;5.25;3.38;;;6.40;99.90;;;;;;5091302;28;20046;-78
2023/03/17 01:17:54;;;;;;;4.20;3.58;;;7.00;99.90;;;;;;5109549;28;20054;-78
2023/03/17 01:20:25;;;;;;;7.18;3.72;;;6.50;99.90;;;;;;5107761;28;20051;-79
2023/03/17 01:22:51;;;;;;;4.95;3.40;;;6.50;99.90;;;;;;5107212;28;20044;-78
2023/03/17 01:25:17;;;;;;;6.90;4.20;;;7.00;99.90;;;;;;5108519;28;20450;-78
2023/03/17 01:27:45;;;;;;;4.15;3.13;;;6.40;99.90;;;;;;5108153;28;20427;-78
2023/03/17 01:30:33;;;;;;;4.47;3.50;;;6.50;99.90;;;;;;5110081;28;20055;-78
2023/03/17 01:32:59;;;;;;;5.20;3.25;;;6.50;99.90;;;;;;5089436;28;20161;-78
2023/03/17 01:35:28;;;;;;;3.72;3.00;;;6.50;99.90;;;;;;5120802;27;20146;-78
2023/03/17 01:37:54;;;;;;;3.70;3.35;;;6.50;99.90;;;;;;5110633;27;20428;-79
2023/03/17 01:40:24;;;;;;;4.55;3.60;;;6.50;99.90;;;;;;5125769;27;20039;-79
2023/03/17 01:42:59;;;;;;;4.65;3.50;;;6.50;99.90;;;;;;5109804;27;20070;-78
2023/03/17 01:46:02;;;;;;;3.90;3.40;;;6.50;99.90;;;;;;5129955;27;20425;-78
2023/03/17 01:48:33;;;;;;;4.65;3.50;;;6.50;99.90;;;;;;5091719;27;20082;-78
2023/03/17 01:51:00;;;;;;;4.43;3.63;;;6.50;99.90;;;;;;5111684;27;20043;-78
2023/03/17 01:53:27;;;;;;;3.58;3.28;;;6.60;99.90;;;;;;5109424;27;20047;-78
2023/03/17 01:55:54;;;;;;;5.85;3.90;;;6.60;99.90;;;;;;5112216;27;20074;-79
2023/03/17 01:58:21;;;;;;;6.97;3.88;;;6.60;99.90;;;;;;5111863;27;20075;-79
2023/03/17 02:00:47;;;;;;;4.82;3.30;;;6.60;99.90;;;;;;5111586;27;20058;-79
2023/03/17 02:03:13;;;;;;;4.35;3.22;;;6.50;99.90;;;;;;5130119;27;20437;-79
2023/03/17 02:05:39;;;;;;;6.75;3.60;;;6.50;99.90;;;;;;5111777;27;20139;-79
2023/03/17 02:08:16;;;;;;;3.95;3.55;;;6.50;99.90;;;;;;5112113;27;20653;-78
2023/03/17 02:10:44;;;;;;;4.53;3.03;;;6.50;99.90;;;;;;5129576;27;20088;-79
2023/03/17 02:13:12;;;;;;;4.93;3.83;;;7.00;99.90;;;;;;5130012;27;20043;-79
2023/03/17 02:15:49;;;;;;;5.72;4.18;;;6.50;99.90;;;;;;5111743;27;20035;-78
2023/03/17 02:18:17;;;;;;;4.97;3.60;;;6.50;99.90;;;;;;5111154;27;20396;-78
2023/03/17 02:20:45;;;;;;;4.07;3.30;;;6.50;99.90;;;;;;5111493;27;20087;-79
2023/03/17 02:23:15;;;;;;;4.07;3.17;;;6.50;99.90;;;;;;5090119;28;20047;-78
2023/03/17 02:25:44;;;;;;;4.70;3.50;;;6.50;99.90;;;;;;5110427;27;20830;-79
2023/03/17 02:28:15;;;;;;;5.18;3.78;;;6.50;99.90;;;;;;5111369;27;20512;-79
2023/03/17 02:30:41;;;;;;;4.20;3.80;;;6.40;99.90;;;;;;5110467;27;20090;-79
2023/03/17 02:33:11;;;;;;;3.92;3.47;;;6.40;99.90;;;;;;5104588;27;20482;-78
2023/03/17 02:35:38;;;;;;;4.40;3.53;;;6.30;99.90;;;;;;5120958;27;20666;-79
2023/03/17 02:38:04;;;;;;;4.53;3.63;;;6.30;99.90;;;;;;5109475;27;20374;-78
2023/03/17 02:40:30;;;;;;;4.97;4.03;;;6.40;99.90;;;;;;5127722;27;20046;-79
2023/03/17 02:42:56;;;;;;;3.70;3.40;;;6.40;99.90;;;;;;5110579;27;20554;-78
2023/03/17 02:45:22;;;;;;;4.70;4.18;;;6.40;99.90;;;;;;5108216;27;20050;-79
2023/03/17 02:47:49;;;;;;;4.63;4.13;;;6.40;99.90;;;;;;5090012;28;20055;-79
2023/03/17 02:50:20;;;;;;;3.90;3.40;;;6.40;99.90;;;;;;5101143;27;20383;-78
2023/03/17 02:52:46;;;;;;;4.22;3.67;;;6.40;99.90;;;;;;5110079;27;20066;-79
2023/03/17 02:55:13;;;;;;;3.53;3.20;;;6.30;99.90;;;;;;5109952;27;20051;-79
2023/03/17 02:57:38;;;;;;;4.07;3.67;;;6.30;99.90;;;;;;5108769;27;20055;-78
2023/03/17 03:00:05;;;;;;;4.30;3.10;;;6.30;99.90;;;;;;5094040;27;20043;-78
2023/03/17 03:02:30;;;;;;;4.32;3.67;;;6.30;99.90;;;;;;5110115;27;20050;-78
2023/03/17 03:04:56;;;;;;;4.03;3.58;;;6.30;99.90;;;;;;5109929;27;20417;-78
2023/03/17 03:07:21;;;;;;;5.80;3.55;;;6.30;99.90;;;;;;5108112;27;20055;-78
2023/03/17 03:09:47;;;;;;;5.15;3.33;;;6.30;99.90;;;;;;5110360;27;20046;-79
2023/03/17 03:12:13;;;;;;;3.78;3.38;;;6.30;99.90;;;;;;5109712;27;20039;-79
2023/03/17 03:14:39;;;;;;;4.30;3.20;;;6.10;99.90;;;;;;5092115;27;20130;-78
2023/03/17 03:17:05;;;;;;;5.22;3.47;;;6.30;99.90;;;;;;5109783;27;20047;-79
2023/03/17 03:19:31;;;;;;;4.30;3.90;;;6.30;99.90;;;;;;5109687;27;20039;-79
2023/03/17 03:21:57;;;;;;;6.05;3.78;;;6.30;99.90;;;;;;5127617;27;20039;-78
2023/03/17 03:24:23;;;;;;;7.18;3.85;;;6.20;99.90;;;;;;5109832;27;20074;-78
2023/03/17 03:26:49;;;;;;;6.05;3.55;;;6.30;99.90;;;;;;5096756;28;20105;-79
2023/03/17 03:29:15;;;;;;;4.15;3.60;;;6.30;99.90;;;;;;5092221;27;20405;-79
2023/03/17 03:31:41;;;;;;;4.15;3.75;;;6.30;99.90;;;;;;5128960;27;20412;-79
2023/03/17 03:34:06;;;;;;;4.25;3.80;;;6.80;99.90;;;;;;5126327;27;20346;-79
2023/03/17 03:36:32;;;;;;;3.88;3.42;;;6.30;99.90;;;;;;5127309;27;20054;-78
2023/03/17 03:38:59;;;;;;;5.43;3.72;;;6.30;99.90;;;;;;5127938;27;20350;-78
2023/03/17 03:41:26;;;;;;;4.13;3.72;;;6.40;99.90;;;;;;5127400;27;20121;-78
2023/03/17 03:43:51;;;;;;;4.38;3.45;;;6.30;99.90;;;;;;5108933;27;20051;-78
2023/03/17 03:46:17;;;;;;;4.95;3.40;;;6.40;99.90;;;;;;5091996;27;20042;-79
2023/03/17 03:48:42;;;;;;;5.95;3.70;;;6.40;99.90;;;;;;5127223;27;20027;-79
2023/03/17 03:51:08;;;;;;;4.35;3.53;;;6.40;99.90;;;;;;5127215;27;20038;-78
2023/03/17 03:53:34;;;;;;;4.18;3.70;;;6.50;99.90;;;;;;5126710;27;20145;-78
2023/03/17 03:55:59;;;;;;;4.18;3.47;;;6.40;99.90;;;;;;5126836;27;20149;-79
2023/03/17 03:58:25;;;;;;;4.13;3.72;;;6.40;99.90;;;;;;5109592;27;20043;-79
2023/03/17 04:00:51;;;;;;;4.70;3.65;;;6.40;99.90;;;;;;5090937;28;20054;-78
2023/03/17 04:03:16;;;;;;;5.75;3.83;;;6.40;99.90;;;;;;5092552;27;20386;-78
2023/03/17 04:05:42;;;;;;;3.83;3.42;;;6.40;99.90;;;;;;5127585;27;20135;-78
2023/03/17 04:08:08;;;;;;;4.20;3.70;;;6.40;99.90;;;;;;5108744;28;20522;-78
2023/03/17 04:10:33;;;;;;;4.85;3.78;;;6.40;99.90;;;;;;5107976;28;20066;-78
2023/03/17 04:12:59;;;;;;;5.85;4.22;;;6.40;99.90;;;;;;5107366;28;20102;-78
2023/03/17 04:15:25;;;;;;;5.75;3.63;;;6.40;99.90;;;;;;5107419;28;20035;-79
2023/03/17 04:17:51;;;;;;;5.55;4.00;;;6.40;99.90;;;;;;5090894;28;20137;-78
2023/03/17 04:20:17;;;;;;;6.03;3.78;;;6.40;99.90;;;;;;5126386;28;20047;-79
2023/03/17 04:22:43;;;;;;;5.05;3.80;;;6.40;99.90;;;;;;5101988;28;20481;-78
2023/03/17 04:25:12;;;;;;;5.22;3.65;;;6.40;99.90;;;;;;5109463;28;20054;-78
2023/03/17 04:27:38;;;;;;;4.30;3.92;;;6.40;99.90;;;;;;5091899;28;20046;-79
2023/03/17 04:30:04;;;;;;;4.20;3.40;;;6.40;99.90;;;;;;5109650;28;20055;-78
2023/03/17 04:32:32;;;;;;;4.38;3.50;;;6.40;99.90;;;;;;5109296;28;20512;-79
2023/03/17 04:34:58;;;;;;;4.28;3.75;;;6.40;99.90;;;;;;5109450;28;20524;-78
2023/03/17 04:37:24;;;;;;;5.13;3.75;;;6.30;99.90;;;;;;5108598;28;20051;-78
2023/03/17 04:39:51;;;;;;;4.00;3.60;;;6.30;99.90;;;;;;5127664;28;20585;-78
2023/03/17 04:42:18;;;;;;;4.10;3.70;;;6.30;99.90;;;;;;5128088;28;20350;-78
2023/03/17 04:44:43;;;;;;;4.85;3.40;;;6.30;99.90;;;;;;5109743;28;20058;-78
2023/03/17 04:47:09;;;;;;;4.80;3.50;;;6.30;99.90;;;;;;5127512;28;20044;-78
2023/03/17 04:49:35;;;;;;;4.70;3.40;;;6.30;99.90;;;;;;5092530;28;20050;-78
2023/03/17 04:52:01;;;;;;;4.38;3.33;;;6.30;99.90;;;;;;5108487;28;20155;-79
2023/03/17 04:54:26;;;;;;;4.35;3.58;;;6.30;99.90;;;;;;5086824;28;20040;-78
2023/03/17 04:56:55;;;;;;;5.07;3.90;;;6.30;99.90;;;;;;5105039;28;20043;-78
2023/03/17 04:59:20;;;;;;;7.15;3.88;;;6.30;99.90;;;;;;5109617;28;20130;-78
2023/03/17 05:01:46;;;;;;;5.97;3.78;;;6.40;99.90;;;;;;5126137;27;20173;-79
2023/03/17 05:04:12;;;;;;;4.75;3.80;;;6.30;99.90;;;;;;5130198;27;20043;-79
2023/03/17 05:06:38;;;;;;;4.40;3.50;;;6.30;99.90;;;;;;5129139;27;20035;-79
2023/03/17 05:09:03;;;;;;;4.05;3.13;;;6.30;99.90;;;;;;5131701;27;20047;-79
2023/03/17 05:11:29;;;;;;;3.97;3.53;;;6.40;99.90;;;;;;5112080;27;20219;-79
2023/03/17 05:14:04;;;;;;;3.92;3.40;;;6.30;99.90;;;;;;5129696;27;20039;-79
2023/03/17 05:16:29;;;;;;;3.50;3.20;;;6.30;99.90;;;;;;5130991;27;20046;-79
2023/03/17 05:18:55;;;;;;;6.68;3.78;;;6.30;99.90;;;;;;5112376;27;20042;-79
2023/03/17 05:21:23;;;;;;;4.32;3.30;;;6.60;99.90;;;;;;5129411;27;20039;-79
2023/03/17 05:23:49;;;;;;;4.95;3.65;;;6.40;99.90;;;;;;5109256;27;20043;-79
2023/03/17 05:26:15;;;;;;;4.28;3.33;;;6.40;99.90;;;;;;5111676;27;20047;-79
2023/03/17 05:28:41;;;;;;;5.30;3.50;;;6.40;99.90;;;;;;5113104;27;20063;-79
2023/03/17 05:31:07;;;;;;;3.90;3.40;;;6.50;99.90;;;;;;5110669;27;20380;-79
2023/03/17 05:33:36;;;;;;;4.00;3.42;;;6.50;99.90;;;;;;5109816;27;20339;-79
2023/03/17 05:36:02;;;;;;;3.47;3.17;;;6.90;99.90;;;;;;5129964;27;20605;-79
2023/03/17 05:38:28;;;;;;;4.00;3.05;;;6.40;99.90;;;;;;5110651;27;20062;-79
2023/03/17 05:40:54;;;;;;;4.75;3.50;;;6.40;99.90;;;;;;5094004;27;20480;-79
2023/03/17 05:43:20;;;;;;;5.28;3.50;;;6.30;99.90;;;;;;5129821;27;20039;-79
2023/03/17 05:45:48;;;;;;;3.92;3.60;;;6.30;99.90;;;;;;5130319;27;20047;-79
2023/03/17 05:48:14;;;;;;;4.40;3.45;;;6.30;99.90;;;;;;5129494;27;20501;-79
2023/03/17 05:50:40;;;;;;;4.78;3.30;;;6.20;99.90;;;;;;5109876;27;20160;-79
2023/03/17 05:53:06;;;;;;;4.00;3.38;;;6.30;99.90;;;;;;5110819;27;20445;-79
2023/03/17 05:55:34;;;;;;;5.15;3.92;;;6.30;99.90;;;;;;5118094;27;20049;-79
2023/03/17 05:58:00;;;;;;;4.30;3.38;;;6.30;99.90;;;;;;5130093;27;20524;-79
2023/03/17 06:00:27;;;;;;;6.07;3.42;;;6.30;99.90;;;;;;5111312;27;20039;-80
2023/03/17 06:02:53;;;;;;;5.55;3.50;;;6.30;99.90;;;;;;5130074;27;20050;-79
2023/03/17 06:05:18;;;;;;;4.47;4.03;;;6.40;99.90;;;;;;5112218;27;20047;-79
2023/03/17 06:07:45;;;;;;;8.63;3.75;;;6.40;99.90;;;;;;5094114;27;20138;-79
2023/03/17 06:10:11;;;;;;;4.57;3.80;;;6.50;99.90;;;;;;5094892;27;20058;-79
2023/03/17 06:12:36;;;;;;;5.78;3.67;;;6.90;99.90;;;;;;5129121;27;20039;-79
2023/03/17 06:15:02;;;;;;;5.10;3.50;;;6.60;99.90;;;;;;5111065;27;20047;-79
2023/03/17 06:17:28;;;;;;;4.47;3.30;;;6.60;99.90;;;;;;5111055;27;20160;-79
2023/03/17 06:19:54;;;;;;;5.28;3.67;;;6.70;99.90;;;;;;5111748;27;20468;-79
2023/03/17 06:22:19;;;;;;;6.10;3.72;;;6.70;99.90;;;;;;5100154;28;20047;-79
2023/03/17 06:24:45;;;;;;;4.50;3.20;;;6.80;99.90;;;;;;5105616;27;20039;-79
2023/03/17 06:27:13;;;;;;;5.40;3.50;;;6.90;99.90;;;;;;5100295;27;20048;-79
2023/03/17 06:29:38;;;;;;;3.95;3.35;;;7.40;99.90;;;;;;5109976;27;20074;-79
2023/03/17 06:32:04;;;;;;;4.13;3.50;;;7.00;99.90;;;;;;5110752;27;20039;-79
2023/03/17 06:34:33;;;;;;;3.83;3.40;;;7.10;99.90;;;;;;5128802;27;20189;-79
2023/03/17 06:36:59;;;;;;;4.35;3.40;;;7.10;99.90;;;;;;5127565;27;20054;-79
2023/03/17 06:39:25;;;;;;;4.75;3.60;;;7.20;99.90;;;;;;5108615;27;20047;-79
2023/03/17 06:41:51;;;;;;;4.35;3.33;;;7.30;99.90;;;;;;5127723;27;20047;-79
2023/03/17 06:44:16;;;;;;;6.75;4.22;;;7.30;99.90;;;;;;5110522;27;20047;-79
2023/03/17 06:46:42;;;;;;;5.97;3.90;;;7.50;99.90;;;;;;5121188;27;20039;-79
2023/03/17 06:49:08;;;;;;;5.13;3.42;;;7.50;99.90;;;;;;5106386;27;20429;-79
2023/03/17 06:51:36;;;;;;;5.78;3.90;;;7.60;99.90;;;;;;5111208;27;20404;-79
2023/03/17 06:54:01;;;;;;;4.22;3.15;;;7.60;99.90;;;;;;5127864;27;20126;-79
2023/03/17 06:56:27;;;;;;;6.05;3.83;;;7.60;99.90;;;;;;5112725;27;20122;-80
2023/03/17 06:58:53;;;;;;;4.95;3.80;;;7.80;99.90;;;;;;5109077;28;20079;-79
2023/03/17 07:01:19;;;;;;;6.78;3.83;;;7.60;99.90;;;;;;5109736;28;20051;-79
2023/03/17 07:03:44;;;;;;;4.22;3.50;;;7.60;99.90;;;;;;5091009;28;20783;-79
2023/03/17 07:06:10;;;;;;;5.18;4.13;;;7.70;99.90;;;;;;5118818;27;20095;-79
2023/03/17 07:08:35;;;;;;;7.85;5.28;;;7.70;99.90;;;;;;5107918;27;20670;-80
2023/03/17 07:11:02;;;;;;;6.20;4.30;;;7.80;99.90;;;;;;5110718;27;20055;-79
2023/03/17 07:13:28;;;;;;;12.65;7.63;;;7.80;99.90;;;;;;5129514;27;20031;-79
2023/03/17 07:15:54;;;;;;;6.45;5.00;;;7.90;99.90;;;;;;5109622;27;20069;-79
2023/03/17 07:18:19;;;;;;;6.40;4.63;;;7.90;99.90;;;;;;5127760;27;20051;-79
2023/03/17 07:20:48;;;;;;;8.18;5.25;;;8.00;99.90;;;;;;5127819;27;20138;-79
2023/03/17 07:23:18;;;;;;;12.38;7.47;;;8.00;99.90;;;;;;5127510;27;20480;-79
2023/03/17 07:25:46;;;;;;;9.45;6.72;;;8.00;99.90;;;;;;5128871;27;20141;-79
2023/03/17 07:28:12;;;;;;;11.00;5.80;;;8.10;99.90;;;;;;5093571;27;20050;-79
2023/03/17 07:30:39;;;;;;;9.13;5.88;;;8.50;99.90;;;;;;5109722;27;20036;-79
2023/03/17 07:33:04;;;;;;;12.90;7.03;;;8.30;99.90;;;;;;5103956;27;20090;-80
2023/03/17 07:35:32;;;;;;;6.68;4.80;;;8.30;99.90;;;;;;5108663;27;20091;-79
2023/03/17 07:37:58;;;;;;;6.07;4.30;;;8.30;99.90;;;;;;5106204;27;20088;-78
2023/03/17 07:40:24;;;;;;;7.68;5.32;;;8.70;99.90;;;;;;5108404;27;20054;-78
2023/03/17 07:42:50;;;;;;;6.63;4.70;;;8.40;99.90;;;;;;5109183;27;20079;-79
2023/03/17 07:45:16;;;;;;;7.55;5.55;;;8.50;99.90;;;;;;5092052;27;20101;-78
2023/03/17 07:47:41;;;;;;;5.22;3.83;;;8.50;99.90;;;;;;5090960;27;20049;-78
2023/03/17 07:50:08;;;;;;;6.28;4.55;;;8.60;99.90;;;;;;5109698;27;20035;-79
2023/03/17 07:52:34;;;;;;;8.32;5.03;;;8.60;99.90;;;;;;5109768;27;20042;-78
2023/03/17 07:55:00;;;;;;;6.72;4.30;;;8.60;99.90;;;;;;5127857;27;20039;-78
2023/03/17 07:57:26;;;;;;;4.88;3.83;;;8.70;99.90;;;;;;5109623;27;20039;-79
2023/03/17 07:59:51;;;;;;;8.57;4.72;;;8.80;99.90;;;;;;5127627;27;20058;-78
2023/03/17 08:02:20;;;;;;;15.77;8.75;;;8.90;99.90;;;;;;5127858;27;20054;-79
2023/03/17 08:04:45;;;;;;;11.38;7.50;;;9.10;99.90;;;;;;5092505;27;20047;-79
2023/03/17 08:07:11;;;;;;;8.02;5.28;;;9.30;99.90;;;;;;5104812;28;20134;-79
2023/03/17 08:09:38;;;;;;;6.88;4.35;;;9.40;99.90;;;;;;5108954;27;20042;-79
2023/03/17 08:12:04;;;;;;;8.90;6.85;;;9.40;99.90;;;;;;5110137;28;20046;-78
2023/03/17 08:14:30;;;;;;;6.30;4.22;;;9.50;99.90;;;;;;5109861;28;20401;-79
2023/03/17 08:16:56;;;;;;;4.93;4.40;;;9.60;99.90;;;;;;5109527;28;20050;-79
2023/03/17 08:19:23;;;;;;;5.60;4.18;;;9.80;99.90;;;;;;5128364;28;20046;-78
2023/03/17 08:21:49;;;;;;;4.40;3.88;;;9.80;99.90;;;;;;5092495;28;20043;-78
2023/03/17 08:24:14;;;;;;;6.55;3.70;;;9.80;99.90;;;;;;5109738;28;20047;-78
2023/03/17 08:26:40;;;;;;;5.88;4.35;;;9.90;99.90;;;;;;5092095;28;20130;-78
2023/03/17 08:29:06;;;;;;;7.35;4.85;;;10.00;99.90;;;;;;5109771;28;20443;-79
2023/03/17 08:31:32;;;;;;;6.40;4.05;;;10.20;99.90;;;;;;5109865;28;20150;-79
2023/03/17 08:33:59;;;;;;;26.40;6.97;;;10.10;99.90;;;;;;5109613;28;20106;-79
2023/03/17 08:36:25;;;;;;;6.93;4.75;;;10.30;99.90;;;;;;5109302;28;20134;-79
2023/03/17 08:38:51;;;;;;;4.85;4.35;;;10.30;99.90;;;;;;5111594;27;20149;-80
2023/03/17 08:41:20;;;;;;;4.43;4.03;;;10.40;99.90;;;;;;5113436;27;20047;-80
2023/03/17 08:43:46;;;;;;;6.35;3.85;;;10.50;99.90;;;;;;5131740;27;20054;-79
2023/03/17 08:46:18;;;;;;;6.18;4.28;;;10.70;99.90;;;;;;5113606;27;20092;-79
2023/03/17 08:48:45;;;;;;;4.77;3.97;;;10.70;99.90;;;;;;5113312;27;20565;-80
2023/03/17 08:51:12;;;;;;;5.15;3.83;;;10.70;99.90;;;;;;5132566;27;20051;-79
2023/03/17 08:53:38;;;;;;;8.77;4.30;;;10.80;99.90;;;;;;5112487;27;20141;-80
2023/03/17 08:56:05;;;;;;;5.70;3.97;;;10.90;99.90;;;;;;5096842;27;20096;-80
2023/03/17 08:58:32;;;;;;;4.97;4.00;;;10.90;99.90;;;;;;5131685;27;20039;-80
2023/03/17 09:00:59;;;;;;;4.45;3.97;;;11.20;99.90;;;;;;5113378;27;20376;-79
2023/03/17 09:03:26;;;;;;;6.07;4.03;;;11.40;99.90;;;;;;5113650;27;20046;-79
2023/03/17 09:05:53;;;;;;;6.35;4.25;;;11.10;99.90;;;;;;5113403;27;20047;-79
2023/03/17 09:08:20;;;;;;;7.38;4.15;;;11.20;99.90;;;;;;5113042;27;20090;-79
2023/03/17 09:10:46;;;;;;;6.30;4.07;;;11.20;99.90;;;;;;5112505;27;20129;-79
2023/03/17 09:13:12;;;;;;;4.97;3.88;;;11.30;99.90;;;;;;5095524;27;20077;-80
2023/03/17 09:15:38;;;;;;;5.35;4.07;;;11.40;99.90;;;;;;5110713;27;20081;-81
2023/03/17 09:18:05;;;;;;;7.07;4.53;;;11.70;99.90;;;;;;5092144;28;20075;-81
2023/03/17 09:20:31;;;;;;;5.13;3.97;;;11.70;99.90;;;;;;5092966;28;20527;-81
2023/03/17 09:22:57;;;;;;;5.75;3.97;;;11.80;99.90;;;;;;5091849;28;20044;-80
2023/03/17 09:25:22;;;;;;;5.15;3.90;;;12.00;99.90;;;;;;5098855;27;20039;-81
2023/03/17 09:27:48;;;;;;;5.03;4.20;;;12.60;99.90;;;;;;5130833;27;20103;-80
2023/03/17 09:30:16;;;;;;;4.35;3.63;;;12.30;99.90;;;;;;5131388;27;20031;-81
2023/03/17 09:32:47;;;;;;;6.13;4.00;;;12.50;99.90;;;;;;5110333;27;20095;-80
2023/03/17 09:35:12;;;;;;;5.45;3.65;;;12.60;99.90;;;;;;5111583;27;20063;-80
2023/03/17 09:37:38;;;;;;;5.57;3.80;;;12.80;99.90;;;;;;5111921;27;20402;-81
2023/03/17 09:40:07;;;;;;;4.57;3.72;;;13.00;99.90;;;;;;5107739;28;20047;-80
2023/03/17 09:42:52;;;;;;;6.10;3.95;;;13.10;99.90;;;;;;5091785;28;20044;-80
2023/03/17 09:45:24;;;;;;;15.85;4.95;;;13.20;99.90;;;;;;5091107;28;20101;-80
2023/03/17 09:48:21;;;;;;;6.35;4.28;;;13.20;99.90;;;;;;5093458;27;20044;-80
2023/03/17 09:50:54;;;;;;;4.75;3.50;;;13.30;99.60;;;;;;5126997;27;20091;-81
2023/03/17 09:53:32;;;;;;;5.05;4.20;;;13.30;99.90;;;;;;5110818;27;20051;-80
2023/03/17 09:56:07;;;;;;;4.53;3.75;;;13.40;99.90;;;;;;5130646;27;20043;-84
2023/03/17 09:58:35;;;;;;;4.28;3.60;;;13.50;99.90;;;;;;5093503;27;20454;-80
2023/03/17 10:01:04;;;;;;;5.95;4.18;;;13.90;99.90;;;;;;5094860;27;20041;-80
2023/03/17 10:03:31;;;;;;;4.60;4.03;;;13.50;99.90;;;;;;5130775;27;20409;-79
2023/03/17 10:06:41;;;;;;;6.38;4.22;;;13.60;99.90;;;;;;5128877;27;20122;-80
2023/03/17 10:09:22;;;;;;;5.85;3.97;;;13.60;99.90;;;;;;5129695;27;20043;-79
2023/03/17 10:11:53;;;;;;;4.80;3.55;;;13.60;99.10;;;;;;5102213;27;20104;-80
2023/03/17 10:14:47;;;;;;;7.10;4.25;;;13.70;99.90;;;;;;5095159;27;20338;-80
2023/03/17 10:17:21;;;;;;;5.13;4.20;;;13.80;99.90;;;;;;5111968;27;20046;-78
2023/03/17 10:19:58;;;;;;;5.53;3.70;;;14.00;98.30;;;;;;5093370;27;20405;-85
2023/03/17 10:22:36;;;;;;;6.07;3.72;;;13.90;99.90;;;;;;5110092;27;20551;-80
2023/03/17 10:25:09;;;;;;;6.60;4.00;;;14.00;99.80;;;;;;5110763;27;20383;-80
2023/03/17 10:27:37;;;;;;;5.55;3.72;;;14.20;99.90;;;;;;5093408;27;20050;-80
2023/03/17 10:30:04;;;;;;;6.63;3.83;;;14.20;99.90;;;;;;5094521;27;20050;-81
2023/03/17 10:32:37;;;;;;;6.38;4.20;;;14.20;99.70;;;;;;5093295;27;20134;-81
2023/03/17 10:35:03;;;;;;;5.53;4.25;;;14.90;99.80;;;;;;5110991;27;20141;-80
2023/03/17 10:37:35;;;;;;;5.03;3.85;;;14.30;99.40;;;;;;5111664;27;20420;-80
2023/03/17 10:40:04;;;;;;;11.88;5.25;;;14.50;99.40;;;;;;5111832;27;20039;-78
2023/03/17 10:42:31;;;;;;;5.47;3.92;;;14.50;99.30;;;;;;5129688;27;20066;-77
2023/03/17 10:45:03;;;;;;;7.32;4.15;;;15.00;99.50;;;;;;5110581;27;20133;-78
2023/03/17 10:47:36;;;;;;;6.07;4.57;;;14.80;98.70;;;;;;5092759;27;20050;-81
2023/03/17 10:50:24;;;;;;;5.30;3.80;;;14.80;97.80;;;;;;5129784;27;20377;-80
2023/03/17 10:53:17;;;;;;;7.25;4.30;;;14.90;96.50;;;;;;5092283;27;20047;-79
2023/03/17 10:55:48;;;;;;;5.55;4.10;;;14.90;96.90;;;;;;5129361;27;20093;-77
2023/03/17 10:58:14;;;;;;;6.53;3.90;;;14.80;96.90;;;;;;5094180;27;20059;-79
2023/03/17 11:00:55;;;;;;;5.30;3.88;;;14.80;97.50;;;;;;5129013;27;20043;-79
2023/03/17 11:03:23;;;;;;;6.32;3.92;;;14.70;97.20;;;;;;5111029;27;20047;-79
2023/03/17 11:06:13;;;;;;;6.55;4.22;;;14.80;97.90;;;;;;5126724;27;20043;-79
2023/03/17 11:08:40;;;;;;;8.48;5.00;;;14.80;95.70;;;;;;5129426;27;20046;-79
2023/03/17 11:11:28;;;;;;;9.65;4.30;;;14.90;98.10;;;;;;5127711;27;20469;-76
2023/03/17 11:14:14;;;;;;;6.82;4.47;;;14.90;97.70;;;;;;5128871;27;20043;-77
2023/03/17 11:16:54;;;;;;;6.53;4.65;;;15.00;96.80;;;;;;5128885;27;20071;-77
2023/03/17 11:19:32;;;;;;;7.15;4.20;;;15.10;97.80;;;;;;5124733;27;20043;-77
2023/03/17 11:22:15;;;;;;;6.15;4.13;;;15.10;97.00;;;;;;5126974;27;20055;-78
2023/03/17 11:24:58;;;;;;;4.75;4.22;;;15.30;95.60;;;;;;5091732;27;20062;-78
2023/03/17 11:27:33;;;;;;;5.10;4.50;;;15.40;97.00;;;;;;5128420;27;20095;-79
2023/03/17 11:30:26;;;;;;;6.85;4.88;;;15.50;95.70;;;;;;5108675;27;20075;-79
2023/03/17 11:33:01;;;;;;;5.95;4.88;;;15.60;96.20;;;;;;5098043;27;20104;-78
2023/03/17 11:35:32;;;;;;;5.70;4.63;;;15.60;96.00;;;;;;5082959;27;20066;-78
2023/03/17 11:38:31;;;;;;;5.82;4.55;;;15.80;93.90;;;;;;5105322;28;20130;-78
2023/03/17 11:41:10;;;;;;;7.63;4.82;;;15.80;93.70;;;;;;5105903;27;20043;-79
2023/03/17 11:44:20;;;;;;;5.32;4.53;;;15.80;95.10;;;;;;5108427;27;20561;-78
2023/03/17 11:46:55;;;;;;;7.13;4.63;;;15.80;91.70;;;;;;5074052;28;20056;-78
2023/03/17 11:49:31;;;;;;;5.82;4.43;;;15.80;95.00;;;;;;5106679;28;20134;-78
2023/03/17 11:52:03;;;;;;;5.85;4.50;;;16.00;94.80;;;;;;5105626;28;20055;-77
2023/03/17 11:54:34;;;;;;;5.15;4.15;;;16.00;94.10;;;;;;5107228;27;20044;-77
2023/03/17 11:57:11;;;;;;;5.35;4.35;;;16.10;93.10;;;;;;5107579;27;20045;-78
2023/03/17 11:59:40;;;;;;;5.45;4.10;;;16.10;93.70;;;;;;5107176;27;20093;-78
2023/03/17 12:02:19;;;;;;;5.47;4.25;;;16.20;93.60;;;;;;5106022;27;20051;-78
2023/03/17 12:04:58;;;;;;;7.15;4.88;;;16.30;92.60;;;;;;5128057;27;20050;-79
2023/03/17 12:07:36;;;;;;;5.88;4.38;;;16.30;91.50;;;;;;5127453;27;20042;-79
2023/03/17 12:10:25;;;;;;;5.10;4.45;;;16.30;93.00;;;;;;5127802;27;20057;-79
2023/03/17 12:13:06;;;;;;;8.65;4.40;;;16.20;91.50;;;;;;5108723;28;20447;-79
2023/03/17 12:15:54;;;;;;;5.10;4.57;;;16.30;93.20;;;;;;5089991;28;20039;-79
2023/03/17 12:18:31;;;;;;;7.78;4.18;;;16.30;92.80;;;;;;5127036;28;20042;-79
2023/03/17 12:21:03;;;;;;;7.05;4.57;;;16.40;92.10;;;;;;5110083;27;20043;-79
2023/03/17 12:23:48;;;;;;;7.38;4.80;;;16.40;92.00;;;;;;5127869;27;20066;-79
2023/03/17 12:26:23;;;;;;;7.88;4.80;;;16.40;90.00;;;;;;5128246;27;20051;-79
2023/03/17 12:29:22;;;;;;;6.22;4.25;;;16.50;90.70;;;;;;5109792;28;21025;-79
2023/03/17 12:32:02;;;;;;;6.32;4.10;;;16.70;86.70;;;;;;5085491;27;20059;-79
2023/03/17 12:34:53;;;;;;;6.70;4.68;;;16.50;84.40;;;;;;5092728;28;20048;-78
2023/03/17 12:37:20;;;;;;;5.13;4.43;;;16.50;87.60;;;;;;5109571;28;20130;-78
2023/03/17 12:40:01;;;;;;;5.32;4.32;;;16.90;90.60;;;;;;5108879;28;20047;-79
2023/03/17 12:42:37;;;;;;;5.13;4.20;;;16.50;86.80;;;;;;5110291;28;20049;-79
2023/03/17 12:45:56;;;;;;;9.00;5.60;;;16.50;90.30;;;;;;5128639;28;20130;-79
2023/03/17 12:49:03;;;;;;;8.75;5.95;;;16.50;86.20;;;;;;5027934;28;20101;-79
2023/03/17 12:51:49;;;;;;;6.53;4.70;;;16.60;90.50;;;;;;4997459;28;20567;-79
2023/03/17 12:54:33;;;;;;;18.38;6.45;;;16.60;88.80;;;;;;5108926;28;20059;-79
2023/03/17 12:57:13;;;;;;;7.13;4.97;;;16.60;89.20;;;;;;5109457;28;20474;-79
2023/03/17 12:59:42;;;;;;;7.38;5.05;;;16.60;87.10;;;;;;5127886;28;20101;-79
2023/03/17 13:02:29;;;;;;;5.07;4.45;;;16.80;89.90;;;;;;5127231;28;20396;-79
2023/03/17 13:04:59;;;;;;;6.30;4.40;;;16.60;90.20;;;;;;5109864;28;20103;-79
2023/03/17 13:07:51;;;;;;;7.57;5.18;;;16.70;90.90;;;;;;5126480;28;20115;-79